Time;durP1;ratioP1;P1;durP2;ratioP2;P2;SDS_P1;SDS_P2;PMS_P1;PMS_P2;Temp;Humidity;BMP_temperature;BMP_pressure;BME280_temperature;BME280_humidity;BME280_pressure;Samples;Min_cycle;Max_cycle;Signal;HPM_P1;HPM_P2
2024/04/01 00:01:50;;;;;;;3.30;2.10;;;;;;;10.02;84.54;98894.75;4980673;28;20079;-80
2024/04/01 00:04:17;;;;;;;2.95;1.90;;;;;;;9.96;84.64;98890.16;4971699;28;20055;-81
2024/04/01 00:06:42;;;;;;;2.42;1.50;;;;;;;9.90;85.41;98890.84;4957743;29;20585;-79
2024/04/01 00:09:09;;;;;;;4.45;2.25;;;;;;;9.98;85.04;98890.00;4964610;28;20087;-80
2024/04/01 00:11:35;;;;;;;2.30;1.65;;;;;;;9.92;85.37;98882.75;4961567;29;20094;-79
2024/04/01 00:14:01;;;;;;;3.17;2.45;;;;;;;9.89;85.98;98883.91;4961217;28;20051;-79
2024/04/01 00:16:28;;;;;;;3.88;2.13;;;;;;;9.92;85.24;98872.19;4960375;28;20134;-79
2024/04/01 00:18:55;;;;;;;2.90;2.10;;;;;;;9.87;85.30;98854.22;4960740;28;20048;-79
2024/04/01 00:21:20;;;;;;;6.65;2.20;;;;;;;9.83;85.36;98852.91;4961539;29;20138;-80
2024/04/01 00:23:52;;;;;;;3.80;2.25;;;;;;;9.82;84.60;98830.97;4960812;29;20083;-80
2024/04/01 00:26:18;;;;;;;5.00;2.28;;;;;;;9.81;84.82;98824.00;4960580;29;20701;-78
2024/04/01 00:28:45;;;;;;;4.32;2.10;;;;;;;9.81;85.19;98820.56;4961151;29;20090;-79
2024/04/01 00:31:10;;;;;;;3.15;2.03;;;;;;;9.82;85.67;98835.41;4959550;29;20126;-79
2024/04/01 00:33:38;;;;;;;3.80;2.08;;;;;;;9.79;85.33;98833.13;4954678;28;20180;-80
2024/04/01 00:36:05;;;;;;;4.93;2.30;;;;;;;9.75;85.73;98835.28;4958575;29;20127;-80
2024/04/01 00:38:31;;;;;;;3.70;1.85;;;;;;;9.78;85.27;98836.78;4952765;29;20043;-79
2024/04/01 00:40:57;;;;;;;2.55;1.90;;;;;;;9.81;84.59;98833.75;4966770;28;20146;-80
2024/04/01 00:43:25;;;;;;;3.35;1.75;;;;;;;9.75;84.99;98835.28;4962471;28;20086;-79
2024/04/01 00:45:52;;;;;;;4.72;2.55;;;;;;;9.74;86.29;98830.19;4958109;28;20051;-79
2024/04/01 00:48:19;;;;;;;3.88;2.00;;;;;;;9.72;85.48;98830.34;4974399;28;20046;-80
2024/04/01 00:50:48;;;;;;;4.30;1.83;;;;;;;9.68;86.07;98822.94;4976243;28;20051;-79
2024/04/01 00:53:17;;;;;;;2.97;2.00;;;;;;;9.64;85.58;98825.09;4976057;28;20050;-79
2024/04/01 00:55:44;;;;;;;2.75;2.05;;;;;;;9.65;85.09;98821.47;4962388;28;20101;-78
2024/04/01 00:58:12;;;;;;;5.47;2.15;;;;;;;9.70;85.27;98824.41;4977373;28;20061;-79
2024/04/01 01:00:39;;;;;;;4.45;3.03;;;;;;;9.74;85.08;98814.34;4977328;28;20085;-80
2024/04/01 01:03:07;;;;;;;3.08;2.38;;;;;;;9.81;84.65;98817.91;4961686;28;20050;-80
2024/04/01 01:05:33;;;;;;;4.75;2.20;;;;;;;9.92;83.55;98820.16;4956651;29;20451;-79
2024/04/01 01:08:01;;;;;;;2.83;1.65;;;;;;;9.87;83.52;98820.69;4956963;28;20137;-78
2024/04/01 01:10:28;;;;;;;1.80;1.70;;;;;;;9.82;83.58;98811.63;4956504;29;20130;-77
2024/04/01 01:12:55;;;;;;;2.85;2.08;;;;;;;9.85;83.45;98819.22;4954181;28;20129;-78
2024/04/01 01:15:21;;;;;;;2.90;1.88;;;;;;;9.82;83.96;98814.25;4954076;28;20142;-77
2024/04/01 01:17:47;;;;;;;3.67;1.60;;;;;;;9.80;83.41;98803.06;4955195;28;20514;-79
2024/04/01 01:20:13;;;;;;;4.00;2.17;;;;;;;9.81;83.35;98812.63;4957560;29;20427;-79
2024/04/01 01:22:42;;;;;;;2.90;1.60;;;;;;;9.78;83.55;98811.16;4960605;28;20196;-80
2024/04/01 01:25:08;;;;;;;3.63;1.50;;;;;;;9.75;83.98;98813.34;4976079;28;20102;-79
2024/04/01 01:27:35;;;;;;;2.70;2.05;;;;;;;9.74;83.70;98806.41;4972469;28;20061;-79
2024/04/01 01:30:02;;;;;;;2.80;2.03;;;;;;;9.78;83.01;98810.34;4956589;29;20051;-79
2024/04/01 01:32:29;;;;;;;5.20;2.08;;;;;;;9.77;83.10;98806.03;4956954;29;20425;-80
2024/04/01 01:34:54;;;;;;;2.65;1.92;;;;;;;9.80;83.49;98805.69;4960122;29;20145;-79
2024/04/01 01:37:21;;;;;;;1.75;1.42;;;;;;;9.77;83.92;98806.84;4959572;29;20087;-78
2024/04/01 01:39:48;;;;;;;1.52;1.40;;;;;;;9.74;84.13;98798.47;4962842;29;20411;-78
2024/04/01 01:42:15;;;;;;;1.95;1.30;;;;;;;9.69;84.13;98792.88;4952396;29;20107;-82
2024/04/01 01:44:41;;;;;;;1.92;1.70;;;;;;;9.66;84.42;98793.25;4947125;29;20106;-77
2024/04/01 01:47:07;;;;;;;3.20;1.50;;;;;;;9.58;84.38;98789.63;4954161;28;20153;-79
2024/04/01 01:49:33;;;;;;;6.50;1.98;;;;;;;9.63;84.40;98787.28;4976497;28;20134;-79
2024/04/01 01:51:59;;;;;;;2.15;1.73;;;;;;;9.61;84.55;98775.28;4977000;28;20540;-80
2024/04/01 01:54:25;;;;;;;3.22;1.50;;;;;;;9.59;84.46;98777.25;4967648;28;20138;-80
2024/04/01 01:56:53;;;;;;;3.35;1.73;;;;;;;9.55;85.12;98770.66;4978397;28;20082;-80
2024/04/01 01:59:18;;;;;;;3.08;1.30;;;;;;;9.53;85.25;98762.09;4978275;28;20110;-80
2024/04/01 02:01:45;;;;;;;2.47;1.55;;;;;;;9.47;86.13;98762.81;4979263;28;20170;-78
2024/04/01 02:04:11;;;;;;;3.00;1.77;;;;;;;9.40;86.30;98762.66;4974069;28;20184;-79
2024/04/01 02:06:37;;;;;;;2.28;2.00;;;;;;;9.35;86.47;98757.91;4971001;28;20055;-78
2024/04/01 02:09:03;;;;;;;3.80;2.10;;;;;;;9.34;86.23;98752.81;4955543;29;20134;-80
2024/04/01 02:11:29;;;;;;;2.65;2.00;;;;;;;9.33;86.33;98743.22;4955631;28;20077;-79
2024/04/01 02:13:56;;;;;;;3.00;2.05;;;;;;;9.33;86.41;98740.59;4984829;23;20130;-79
2024/04/01 02:16:23;;;;;;;2.58;2.00;;;;;;;9.34;86.43;98740.44;4996345;28;20535;-80
2024/04/01 02:18:48;;;;;;;3.22;1.98;;;;;;;9.26;87.49;98745.75;4996576;28;20065;-77
2024/04/01 02:21:18;;;;;;;4.32;2.35;;;;;;;9.28;88.47;98753.47;4996665;28;20055;-80
2024/04/01 02:23:44;;;;;;;4.60;2.13;;;;;;;9.18;88.32;98750.22;4989096;28;20046;-79
2024/04/01 02:26:10;;;;;;;2.67;2.05;;;;;;;9.17;89.49;98746.78;4988337;28;20411;-78
2024/04/01 02:28:36;;;;;;;2.80;1.70;;;;;;;9.14;88.77;98741.00;4988798;28;20116;-79
2024/04/01 02:31:04;;;;;;;2.03;1.80;;;;;;;9.13;88.92;98750.75;4995615;28;20046;-79
2024/04/01 02:33:30;;;;;;;3.05;1.92;;;;;;;9.07;89.05;98752.25;4995404;28;20138;-80
2024/04/01 02:35:57;;;;;;;4.97;2.30;;;;;;;9.05;89.22;98764.78;4995687;28;20073;-80
2024/04/01 02:38:23;;;;;;;6.25;2.70;;;;;;;9.00;89.66;98772.38;4985841;28;20051;-77
2024/04/01 02:40:49;;;;;;;3.22;2.00;;;;;;;8.98;90.13;98763.03;4989466;28;20101;-81
2024/04/01 02:43:15;;;;;;;3.00;2.10;;;;;;;8.97;89.78;98761.34;4988097;28;20089;-82
2024/04/01 02:45:42;;;;;;;2.67;2.30;;;;;;;8.94;89.89;98767.81;4987350;28;20050;-77
2024/04/01 02:48:09;;;;;;;3.17;1.63;;;;;;;8.97;90.27;98754.25;4995003;28;20054;-80
2024/04/01 02:50:36;;;;;;;2.58;2.00;;;;;;;8.93;89.94;98741.56;4987112;28;20353;-79
2024/04/01 02:53:01;;;;;;;2.67;2.30;;;;;;;8.93;90.20;98739.78;5001181;28;20058;-81
2024/04/01 02:55:28;;;;;;;2.97;1.98;;;;;;;8.91;90.33;98733.03;4996347;28;20105;-80
2024/04/01 02:57:54;;;;;;;4.10;2.28;;;;;;;8.95;91.26;98727.22;4985752;28;20112;-80
2024/04/01 03:00:22;;;;;;;2.75;2.03;;;;;;;8.90;90.83;98712.91;4989406;28;20050;-79
2024/04/01 03:02:48;;;;;;;3.05;2.15;;;;;;;8.85;91.42;98714.25;4995809;28;20059;-78
2024/04/01 03:05:17;;;;;;;2.25;2.05;;;;;;;8.86;91.09;98722.97;4995951;28;20043;-80
2024/04/01 03:07:44;;;;;;;3.10;2.10;;;;;;;8.77;91.46;98716.09;4984664;28;20103;-78
2024/04/01 03:10:12;;;;;;;3.40;2.38;;;;;;;8.67;92.81;98715.47;4999278;28;20150;-80
2024/04/01 03:12:38;;;;;;;2.55;2.03;;;;;;;8.65;92.40;98725.34;4999895;28;20133;-79
2024/04/01 03:15:05;;;;;;;2.80;2.30;;;;;;;8.73;91.56;98722.69;4998951;28;20129;-79
2024/04/01 03:17:31;;;;;;;3.97;2.83;;;;;;;8.80;90.69;98716.59;4999788;28;20084;-82
2024/04/01 03:19:58;;;;;;;4.43;2.42;;;;;;;8.80;91.10;98713.13;4999102;28;20046;-78
2024/04/01 03:22:26;;;;;;;4.70;2.65;;;;;;;8.73;91.27;98712.13;4999437;28;20050;-81
2024/04/01 03:24:53;;;;;;;4.30;2.72;;;;;;;8.73;91.79;98714.78;4993165;28;20255;-82
2024/04/01 03:27:20;;;;;;;3.47;2.65;;;;;;;8.74;92.17;98722.50;4979476;28;20146;-80
2024/04/01 03:29:47;;;;;;;4.30;3.03;;;;;;;8.68;92.43;98709.19;4978655;28;20437;-77
2024/04/01 03:32:12;;;;;;;3.90;2.70;;;;;;;8.70;92.66;98702.75;4986843;28;20089;-80
2024/04/01 03:34:39;;;;;;;5.40;3.15;;;;;;;8.67;93.04;98705.75;4998558;28;20050;-79
2024/04/01 03:37:04;;;;;;;5.00;2.95;;;;;;;8.63;93.53;98711.53;4998929;28;20085;-81
2024/04/01 03:39:33;;;;;;;3.88;2.67;;;;;;;8.60;93.67;98708.22;4998191;28;20082;-80
2024/04/01 03:41:59;;;;;;;5.40;3.15;;;;;;;8.63;93.30;98707.06;4992979;28;20126;-78
2024/04/01 03:44:26;;;;;;;5.03;3.13;;;;;;;8.60;92.91;98710.84;4987804;28;20081;-81
2024/04/01 03:46:52;;;;;;;6.07;3.15;;;;;;;8.63;92.81;98711.53;4987074;28;20086;-80
2024/04/01 03:49:20;;;;;;;3.88;2.78;;;;;;;8.58;92.87;98710.22;4998563;28;20058;-80
2024/04/01 03:51:47;;;;;;;4.28;2.67;;;;;;;8.73;92.43;98714.78;4991217;28;20047;-82
2024/04/01 03:54:14;;;;;;;4.07;2.65;;;;;;;8.69;92.43;98710.84;5002038;28;20110;-80
2024/04/01 03:56:42;;;;;;;3.75;2.70;;;;;;;8.61;92.34;98709.84;4998560;28;20050;-81
2024/04/01 03:59:09;;;;;;;3.05;2.75;;;;;;;8.56;92.77;98711.34;5007648;28;20050;-79
2024/04/01 04:01:35;;;;;;;3.25;2.55;;;;;;;8.52;93.42;98716.13;5007752;28;20050;-80
2024/04/01 04:04:02;;;;;;;3.83;2.42;;;;;;;8.54;93.02;98718.63;5004174;28;20085;-80
2024/04/01 04:06:27;;;;;;;2.97;2.45;;;;;;;8.60;93.21;98717.94;4999519;28;20493;-80
2024/04/01 04:08:54;;;;;;;4.20;2.80;;;;;;;8.61;92.60;98720.41;5000046;28;20069;-81
2024/04/01 04:11:21;;;;;;;3.00;2.47;;;;;;;8.56;92.91;98717.44;5000595;28;20054;-81
2024/04/01 04:13:49;;;;;;;5.43;2.80;;;;;;;8.52;93.53;98724.03;5000134;28;20563;-80
2024/04/01 04:16:16;;;;;;;3.25;2.85;;;;;;;8.60;92.73;98728.50;5000244;28;20054;-79
2024/04/01 04:18:44;;;;;;;3.97;2.60;;;;;;;8.54;93.25;98739.72;4988653;28;20051;-79
2024/04/01 04:21:10;;;;;;;4.63;2.70;;;;;;;8.52;92.97;98736.41;4995440;28;20058;-81
2024/04/01 04:23:37;;;;;;;2.75;2.53;;;;;;;8.59;92.81;98726.84;4983705;28;20588;-80
2024/04/01 04:26:03;;;;;;;3.67;2.60;;;;;;;8.63;92.55;98738.72;4993384;28;20059;-81
2024/04/01 04:28:30;;;;;;;3.30;2.45;;;;;;;8.67;91.92;98739.19;4989966;28;20064;-82
2024/04/01 04:30:57;;;;;;;3.15;2.60;;;;;;;8.71;92.27;98740.50;4990354;28;20081;-80
2024/04/01 04:33:24;;;;;;;2.92;2.63;;;;;;;8.71;92.10;98737.88;4990404;28;20059;-84
2024/04/01 04:35:50;;;;;;;4.50;2.80;;;;;;;8.72;92.92;98736.88;4991597;28;20097;-81
2024/04/01 04:38:18;;;;;;;5.18;2.72;;;;;;;8.71;92.03;98741.34;4990658;28;20055;-79
2024/04/01 04:40:43;;;;;;;3.08;2.58;;;;;;;8.73;92.13;98743.78;4987173;28;20189;-80
2024/04/01 04:43:10;;;;;;;2.67;2.47;;;;;;;8.70;91.73;98742.28;4985494;28;20125;-77
2024/04/01 04:45:36;;;;;;;7.60;2.92;;;;;;;8.91;91.13;98740.94;4981010;28;20076;-83
2024/04/01 04:48:04;;;;;;;3.13;2.60;;;;;;;8.87;90.86;98745.72;4996236;28;20133;-78
2024/04/01 04:50:31;;;;;;;3.35;2.67;;;;;;;8.85;91.54;98743.25;4988608;28;20074;-83
2024/04/01 04:52:58;;;;;;;6.53;3.67;;;;;;;8.83;91.51;98749.69;4997442;28;20393;-77
2024/04/01 04:55:23;;;;;;;6.72;3.60;;;;;;;8.84;91.86;98751.34;4995591;28;20088;-79
2024/04/01 04:57:50;;;;;;;6.65;3.50;;;;;;;8.81;92.17;98743.78;4981926;28;20058;-80
2024/04/01 05:00:22;;;;;;;3.67;2.97;;;;;;;8.85;92.00;98750.34;4996423;28;20134;-79
2024/04/01 05:02:48;;;;;;;6.07;3.10;;;;;;;8.88;91.55;98747.34;4984780;28;20085;-79
2024/04/01 05:05:17;;;;;;;5.50;2.95;;;;;;;8.88;92.07;98752.63;4977547;28;20170;-79
2024/04/01 05:07:45;;;;;;;3.72;2.60;;;;;;;8.92;92.00;98753.13;4988711;28;20061;-78
2024/04/01 05:10:11;;;;;;;4.53;2.28;;;;;;;8.91;91.64;98762.03;4981235;28;20137;-80
2024/04/01 05:12:38;;;;;;;4.03;2.60;;;;;;;8.89;92.29;98756.94;4993562;28;20082;-79
2024/04/01 05:15:05;;;;;;;2.60;2.20;;;;;;;9.04;91.46;98760.50;4977357;28;20047;-79
2024/04/01 05:17:32;;;;;;;3.58;2.40;;;;;;;9.03;91.89;98758.88;4995075;28;20054;-80
2024/04/01 05:19:58;;;;;;;4.25;2.60;;;;;;;9.04;91.46;98768.41;4996401;28;20042;-79
2024/04/01 05:22:26;;;;;;;4.80;2.20;;;;;;;9.05;90.98;98762.16;4980199;28;20150;-79
2024/04/01 05:24:52;;;;;;;3.25;2.13;;;;;;;9.13;90.09;98768.41;4992842;28;20061;-80
2024/04/01 05:27:18;;;;;;;2.00;1.80;;;;;;;9.10;91.02;98767.72;4986889;28;20500;-78
2024/04/01 05:29:44;;;;;;;2.53;2.33;;;;;;;9.16;90.26;98770.72;4997705;28;20129;-79
2024/04/01 05:32:10;;;;;;;3.63;2.38;;;;;;;9.16;90.21;98775.97;4991461;28;20063;-79
2024/04/01 05:34:37;;;;;;;2.63;1.90;;;;;;;9.10;91.36;98778.28;5005340;28;20564;-80
2024/04/01 05:37:06;;;;;;;3.75;1.90;;;;;;;9.10;91.29;98783.56;5004745;28;20050;-79
2024/04/01 05:39:33;;;;;;;2.78;1.95;;;;;;;9.13;91.44;98782.41;5006823;28;20042;-79
2024/04/01 05:42:01;;;;;;;4.10;2.30;;;;;;;9.15;90.88;98790.16;5006071;28;20081;-81
2024/04/01 05:44:27;;;;;;;2.58;2.17;;;;;;;9.16;91.58;98794.47;5002958;28;20086;-81
2024/04/01 05:46:55;;;;;;;2.00;1.80;;;;;;;9.15;91.61;98800.72;4981122;28;20059;-82
2024/04/01 05:49:21;;;;;;;2.05;1.90;;;;;;;9.14;91.81;98796.44;4996512;28;20130;-80
2024/04/01 05:51:47;;;;;;;3.65;1.75;;;;;;;9.17;91.85;98799.56;4984978;28;20133;-82
2024/04/01 05:54:13;;;;;;;3.33;2.40;;;;;;;9.17;92.27;98802.19;4998190;28;20134;-80
2024/04/01 05:56:41;;;;;;;2.70;2.20;;;;;;;9.15;92.62;98808.63;4998075;28;20105;-78
2024/04/01 05:59:07;;;;;;;2.42;2.05;;;;;;;9.08;92.86;98811.13;4983309;28;20087;-79
2024/04/01 06:01:34;;;;;;;3.08;2.30;;;;;;;9.03;93.18;98811.63;4997684;28;20057;-80
2024/04/01 06:03:59;;;;;;;3.47;2.58;;;;;;;9.05;93.29;98806.19;4997281;28;20046;-82
2024/04/01 06:06:26;;;;;;;5.47;2.95;;;;;;;8.98;93.19;98816.59;4997750;28;20113;-78
2024/04/01 06:08:52;;;;;;;2.45;2.00;;;;;;;9.07;93.73;98814.78;4997820;28;20131;-80
2024/04/01 06:11:18;;;;;;;2.95;2.10;;;;;;;9.12;93.66;98809.81;4989239;28;20055;-82
2024/04/01 06:13:45;;;;;;;4.05;2.30;;;;;;;9.22;93.63;98818.34;4997172;28;20481;-78
2024/04/01 06:16:13;;;;;;;4.45;2.60;;;;;;;9.20;93.65;98822.16;4996826;28;20078;-79
2024/04/01 06:18:39;;;;;;;7.72;2.65;;;;;;;9.23;93.41;98819.16;4986245;28;20055;-79
2024/04/01 06:21:05;;;;;;;2.75;2.42;;;;;;;9.24;93.15;98816.38;4992239;28;20116;-79
2024/04/01 06:23:33;;;;;;;3.63;2.38;;;;;;;9.15;94.40;98811.25;4988561;28;20138;-80
2024/04/01 06:26:00;;;;;;;5.63;2.45;;;;;;;9.14;94.81;98817.53;4995575;28;20121;-79
2024/04/01 06:28:26;;;;;;;3.50;2.60;;;;;;;9.18;94.12;98818.84;4996688;28;20505;-80
2024/04/01 06:30:54;;;;;;;5.03;2.88;;;;;;;9.15;95.09;98817.34;4988657;28;20046;-79
2024/04/01 06:33:19;;;;;;;4.85;2.72;;;;;;;9.24;94.36;98818.16;4996386;28;20054;-79
2024/04/01 06:35:46;;;;;;;4.32;2.50;;;;;;;9.24;94.55;98815.53;4988103;28;20057;-79
2024/04/01 06:38:12;;;;;;;3.17;2.65;;;;;;;9.23;94.48;98819.16;4996006;28;20062;-80
2024/04/01 06:40:39;;;;;;;3.80;2.60;;;;;;;9.21;94.48;98818.53;4996499;28;20132;-80
2024/04/01 06:43:04;;;;;;;3.88;2.33;;;;;;;9.29;94.69;98821.97;4989649;28;20046;-79
2024/04/01 06:45:31;;;;;;;3.95;2.40;;;;;;;9.33;94.73;98825.06;4994291;28;20129;-79
2024/04/01 06:47:58;;;;;;;4.50;2.67;;;;;;;9.29;94.92;98823.78;4996285;28;20084;-80
2024/04/01 06:50:25;;;;;;;3.53;2.67;;;;;;;9.24;95.71;98829.56;4995555;28;20129;-81
2024/04/01 06:52:51;;;;;;;2.97;2.28;;;;;;;9.37;95.04;98836.91;4995112;28;20514;-80
2024/04/01 06:55:17;;;;;;;4.65;2.80;;;;;;;9.35;94.88;98838.91;4995723;28;20061;-77
2024/04/01 06:57:43;;;;;;;3.95;2.33;;;;;;;9.28;95.55;98838.75;4984463;28;20066;-80
2024/04/01 07:00:11;;;;;;;5.47;3.03;;;;;;;9.36;94.99;98837.91;4991302;28;20057;-80
2024/04/01 07:02:36;;;;;;;3.95;2.58;;;;;;;9.38;94.81;98840.41;4994453;28;20100;-79
2024/04/01 07:05:08;;;;;;;5.43;3.10;;;;;;;9.45;94.50;98844.81;4994350;28;20090;-79
2024/04/01 07:07:35;;;;;;;5.20;2.80;;;;;;;9.43;94.29;98843.34;4995372;28;20089;-78
2024/04/01 07:10:01;;;;;;;3.08;2.60;;;;;;;9.55;94.05;98848.09;4995229;28;20046;-80
2024/04/01 07:12:29;;;;;;;2.83;2.20;;;;;;;9.47;94.69;98842.03;4995673;28;20121;-80
2024/04/01 07:14:56;;;;;;;3.92;2.13;;;;;;;9.48;95.01;98841.03;4994817;28;20050;-78
2024/04/01 07:17:22;;;;;;;3.40;2.30;;;;;;;9.42;94.27;98839.03;4994942;28;20059;-76
2024/04/01 07:19:49;;;;;;;3.08;2.20;;;;;;;9.40;94.70;98847.16;4987117;28;20050;-79
2024/04/01 07:22:16;;;;;;;3.38;2.50;;;;;;;9.51;95.08;98846.78;4994418;28;20243;-75
2024/04/01 07:24:43;;;;;;;2.10;2.00;;;;;;;9.57;94.61;98845.28;4990504;28;20064;-78
2024/04/01 07:27:09;;;;;;;3.72;2.80;;;;;;;9.47;93.80;98863.97;4989828;28;20050;-79
2024/04/01 07:29:38;;;;;;;2.55;2.35;;;;;;;9.40;93.74;98856.88;4995715;28;20129;-77
2024/04/01 07:32:04;;;;;;;3.05;2.22;;;;;;;9.35;94.35;98854.75;4996299;28;20157;-80
2024/04/01 07:34:31;;;;;;;4.53;2.42;;;;;;;9.34;93.66;98858.41;4997298;28;20054;-79
2024/04/01 07:36:57;;;;;;;3.70;2.90;;;;;;;9.41;94.54;98871.72;4996109;28;20146;-80
2024/04/01 07:39:25;;;;;;;5.22;2.70;;;;;;;9.45;94.21;98873.03;4995657;28;20089;-80
2024/04/01 07:41:51;;;;;;;2.78;2.40;;;;;;;9.42;95.27;98873.38;4995174;28;20120;-79
2024/04/01 07:44:19;;;;;;;3.10;2.58;;;;;;;9.31;95.17;98870.13;4998852;28;20055;-84
2024/04/01 07:46:45;;;;;;;3.22;2.63;;;;;;;9.33;94.96;98878.69;4990839;28;20468;-80
2024/04/01 07:49:12;;;;;;;4.63;3.03;;;;;;;9.41;95.03;98888.38;4999409;28;20056;-80
2024/04/01 07:51:38;;;;;;;2.88;2.50;;;;;;;9.52;94.97;98900.44;4999681;28;20501;-80
2024/04/01 07:54:05;;;;;;;4.82;2.80;;;;;;;9.46;95.84;98906.38;5000326;28;20113;-81
2024/04/01 07:56:32;;;;;;;5.68;3.38;;;;;;;9.47;95.64;98906.22;4999424;28;20133;-81
2024/04/01 07:58:59;;;;;;;5.07;3.80;;;;;;;9.44;95.26;98906.53;4998990;28;20098;-79
2024/04/01 08:01:24;;;;;;;4.28;3.50;;;;;;;9.47;94.75;98906.22;4998915;28;20069;-79
2024/04/01 08:03:51;;;;;;;4.40;3.58;;;;;;;9.44;95.34;98903.91;4998372;28;20114;-81
2024/04/01 08:06:17;;;;;;;6.18;4.15;;;;;;;9.46;94.70;98898.44;5001261;28;20106;-86
2024/04/01 08:08:44;;;;;;;5.13;4.30;;;;;;;9.38;95.27;98909.06;5004000;28;20054;-82
2024/04/01 08:11:09;;;;;;;7.97;4.03;;;;;;;9.40;95.48;98925.53;4993375;28;20063;-79
2024/04/01 08:16:08;;;;;;;7.30;4.95;;;;;;;9.30;96.82;98933.66;4973186;28;20494;-78
2024/04/01 08:18:35;;;;;;;6.53;5.05;;;;;;;9.38;96.26;98932.81;4978691;28;20050;-79
2024/04/01 08:21:01;;;;;;;9.23;7.20;;;;;;;9.35;96.30;98934.78;4979624;28;20051;-77
2024/04/01 08:23:29;;;;;;;10.93;7.65;;;;;;;9.29;96.88;98927.53;4978119;28;20133;-78
2024/04/01 08:25:55;;;;;;;11.27;9.18;;;;;;;9.31;96.64;98932.66;4988135;28;20050;-78
2024/04/01 08:28:21;;;;;;;10.43;9.05;;;;;;;9.40;96.05;98925.53;4994143;28;20114;-78
2024/04/01 08:30:48;;;;;;;11.90;9.32;;;;;;;9.33;96.69;98925.38;4994644;28;20109;-79
2024/04/01 08:33:16;;;;;;;12.10;9.40;;;;;;;9.33;96.97;98930.66;4993493;28;20047;-79
2024/04/01 08:35:43;;;;;;;11.88;8.43;;;;;;;9.27;97.22;98934.78;4989075;28;20081;-78
2024/04/01 08:38:09;;;;;;;12.70;9.15;;;;;;;9.42;95.84;98929.66;4990962;28;20141;-79
2024/04/01 08:40:43;;;;;;;12.48;8.70;;;;;;;9.49;96.99;98919.25;4997035;28;20042;-79
2024/04/01 08:43:13;;;;;;;9.18;5.80;;;;;;;9.48;95.19;98928.97;4991074;28;20144;-78
2024/04/01 08:45:40;;;;;;;7.43;5.13;;;;;;;9.49;95.67;98935.91;4987078;28;20086;-80
2024/04/01 08:48:10;;;;;;;7.60;5.60;;;;;;;9.44;96.55;98942.69;4987853;28;20058;-78
2024/04/01 08:50:45;;;;;;;7.60;5.78;;;;;;;9.41;96.29;98938.56;4986911;28;20142;-78
2024/04/01 08:53:17;;;;;;;7.43;5.85;;;;;;;9.43;96.69;98936.59;4994328;28;20054;-79
2024/04/01 08:55:44;;;;;;;8.07;6.50;;;;;;;9.42;97.12;98942.00;4995414;28;20050;-78
2024/04/01 08:58:10;;;;;;;6.60;5.85;;;;;;;9.36;97.03;98951.44;4990333;28;20404;-78
2024/04/01 09:00:38;;;;;;;8.15;6.97;;;;;;;9.38;96.89;98949.47;4995148;28;20470;-79
2024/04/01 09:03:03;;;;;;;10.15;7.03;;;;;;;9.37;96.85;98947.81;4997934;28;20142;-80
2024/04/01 09:05:30;;;;;;;9.00;7.28;;;;;;;9.39;96.99;98952.94;5000938;28;20541;-80
2024/04/01 09:07:59;;;;;;;9.75;8.02;;;;;;;9.38;96.91;98965.31;4997646;28;20120;-79
2024/04/01 09:10:26;;;;;;;11.43;9.23;;;;;;;9.41;96.54;98975.53;4994817;28;20402;-79
2024/04/01 09:12:53;;;;;;;12.82;9.95;;;;;;;9.38;97.01;98990.91;4988973;28;20074;-80
2024/04/01 09:15:30;;;;;;;11.07;8.93;;;;;;;9.41;97.08;98986.06;5001778;28;20405;-78
2024/04/01 09:17:56;;;;;;;11.10;7.80;;;;;;;9.45;96.43;98984.75;4993655;28;20109;-80
2024/04/01 09:20:23;;;;;;;9.13;7.50;;;;;;;9.43;96.16;98975.38;4988087;28;20042;-78
2024/04/01 09:22:49;;;;;;;11.82;8.18;;;;;;;9.46;96.39;98977.66;4995315;28;20077;-79
2024/04/01 09:25:17;;;;;;;10.48;7.60;;;;;;;9.47;97.06;98980.16;4991803;28;20066;-79
2024/04/01 09:27:43;;;;;;;8.65;7.68;;;;;;;9.52;96.67;98983.09;4991559;28;20046;-80
2024/04/01 09:30:10;;;;;;;10.63;8.48;;;;;;;9.58;96.33;98998.28;4992365;28;20047;-78
2024/04/01 09:32:36;;;;;;;9.35;8.10;;;;;;;9.56;96.73;99008.19;4990222;28;20129;-79
2024/04/01 09:35:03;;;;;;;10.82;8.88;;;;;;;9.49;97.27;99009.84;4997432;28;20076;-79
2024/04/01 09:37:29;;;;;;;11.93;8.68;;;;;;;9.50;96.35;99011.47;4997954;28;20051;-79
2024/04/01 09:39:58;;;;;;;11.48;9.15;;;;;;;9.51;96.37;99015.78;5000099;28;20118;-79
2024/04/01 09:42:26;;;;;;;10.63;8.65;;;;;;;9.57;96.38;99014.28;4998909;28;20420;-80
2024/04/01 09:44:55;;;;;;;12.00;8.85;;;;;;;9.53;96.77;99019.06;4984257;28;20085;-78
2024/04/01 09:47:21;;;;;;;11.15;9.00;;;;;;;9.56;96.30;99023.22;4996449;28;20061;-80
2024/04/01 09:49:49;;;;;;;10.48;8.60;;;;;;;9.63;94.59;99019.72;4990474;28;20046;-80
2024/04/01 09:52:15;;;;;;;10.40;8.50;;;;;;;9.66;94.26;99030.97;4992526;28;20050;-77
2024/04/01 09:54:41;;;;;;;13.95;8.80;;;;;;;9.67;94.11;99028.13;4993204;28;20541;-81
2024/04/01 09:58:00;;;;;;;15.27;10.38;;;;;;;9.69;93.22;99034.09;4994513;28;20389;-79
2024/04/01 10:00:34;;;;;;;12.05;8.90;;;;;;;9.69;92.88;99033.25;4993259;28;20402;-79
2024/04/01 10:03:40;;;;;;;11.50;9.20;;;;;;;9.95;93.11;99031.19;4987231;28;20125;-79
2024/04/01 10:06:38;;;;;;;12.48;8.82;;;;;;;10.13;92.27;99028.34;4987567;28;20046;-78
2024/04/01 10:09:42;;;;;;;13.23;9.02;;;;;;;10.24;93.22;99037.72;4995487;28;20085;-80
2024/04/01 10:12:35;;;;;;;10.88;7.55;;;;;;;10.29;90.75;99040.72;4995641;28;20046;-79
2024/04/01 10:15:40;;;;;;;9.27;7.78;;;;;;;10.20;91.10;99045.19;4995197;28;20050;-81
2024/04/01 10:18:22;;;;;;;9.32;6.63;;;;;;;10.07;91.74;99050.19;4990451;28;20059;-80
2024/04/01 10:21:08;;;;;;;7.87;6.33;;;;;;;9.93;90.17;99056.97;4989487;28;20156;-79
2024/04/01 10:24:30;;;;;;;10.25;6.70;;;;;;;9.97;91.11;99054.84;4997361;28;20300;-79
2024/04/01 10:27:42;;;;;;;8.35;5.70;;;;;;;10.10;91.26;99066.53;4996157;28;20046;-80
2024/04/01 10:30:33;;;;;;;8.38;6.07;;;;;;;10.09;90.45;99049.03;4994139;28;20493;-80
2024/04/01 10:33:47;;;;;;;10.23;6.53;;;;;;;10.32;90.76;99053.59;4998637;28;20056;-80
2024/04/01 10:36:28;;;;;;;8.20;6.85;;;;;;;10.37;90.52;99056.56;4947836;28;20507;-81
2024/04/01 10:39:27;;;;;;;9.95;6.80;;;;;;;10.42;89.24;99062.16;4997788;28;20055;-81
2024/04/01 10:42:22;;;;;;;8.35;6.60;;;;;;;10.44;88.86;99057.50;4997586;28;20145;-79
2024/04/01 10:45:27;;;;;;;9.63;6.60;;;;;;;10.44;89.47;99064.59;4948859;28;20046;-79
2024/04/01 10:48:17;;;;;;;7.60;5.88;;;;;;;10.52;88.46;99061.94;4988980;28;20050;-79
2024/04/01 10:51:22;;;;;;;8.45;6.22;;;;;;;10.41;89.21;99063.16;4992286;28;20043;-79
2024/04/01 10:54:00;;;;;;;7.68;6.43;;;;;;;10.42;87.81;99075.38;4961151;28;20118;-78
2024/04/01 10:57:03;;;;;;;7.75;6.10;;;;;;;10.61;88.53;99074.94;4986356;28;20050;-79
2024/04/01 10:59:43;;;;;;;;;;;;;;;10.48;89.30;99085.25;4987167;28;20429;-79
2024/04/01 11:02:36;;;;;;;12.15;6.38;;;;;;;10.61;88.25;99090.81;4992032;28;20367;-78
2024/04/01 11:05:22;;;;;;;9.75;7.00;;;;;;;10.47;87.60;99102.13;4990506;28;20153;-79
2024/04/01 11:08:05;;;;;;;10.00;6.47;;;;;;;10.46;85.86;99105.78;4995649;28;20101;-79
2024/04/01 11:10:39;;;;;;;11.20;6.07;;;;;;;10.47;86.06;99107.41;4996012;28;20074;-77
2024/04/01 11:13:11;;;;;;;7.57;6.00;;;;;;;10.40;86.81;99114.38;4987474;28;20065;-79
2024/04/01 11:15:37;;;;;;;7.33;5.23;;;;;;;10.38;86.68;99121.66;4995407;28;20054;-78
2024/04/01 11:18:18;;;;;;;9.35;4.78;;;;;;;10.38;85.99;99124.31;4999800;28;20353;-81
2024/04/01 11:20:55;;;;;;;9.05;5.35;;;;;;;10.34;84.96;99137.03;4988811;28;20220;-80
2024/04/01 11:23:46;;;;;;;8.60;5.07;;;;;;;10.42;84.48;99135.38;4996831;28;20137;-79
2024/04/01 11:26:27;;;;;;;6.82;4.00;;;;;;;10.43;82.96;99147.59;4987408;28;20461;-79
2024/04/01 11:29:12;;;;;;;8.50;4.45;;;;;;;10.50;83.54;99148.59;4999520;28;20065;-80
2024/04/01 11:31:48;;;;;;;7.80;4.60;;;;;;;10.57;82.99;99155.63;5000644;28;20442;-80
2024/04/01 11:34:21;;;;;;;7.00;4.20;;;;;;;10.52;83.37;99154.50;5001793;28;20106;-79
2024/04/01 11:37:05;;;;;;;11.55;5.20;;;;;;;10.60;84.16;99157.97;4998811;28;20078;-79
2024/04/01 11:39:35;;;;;;;8.60;4.72;;;;;;;10.53;85.51;99167.56;4994124;28;20054;-80
2024/04/01 11:42:02;;;;;;;7.65;4.35;;;;;;;10.48;85.05;99172.53;4988593;28;20047;-79
2024/04/01 11:44:30;;;;;;;5.90;3.80;;;;;;;10.44;83.95;99176.50;4992971;28;20050;-79
2024/04/01 11:46:57;;;;;;;7.00;3.75;;;;;;;10.43;84.85;99189.91;4995848;28;20112;-80
2024/04/01 11:49:24;;;;;;;8.15;3.80;;;;;;;10.55;83.25;99196.50;5004230;28;20050;-79
2024/04/01 11:51:53;;;;;;;6.63;3.90;;;;;;;10.61;83.48;99201.94;5003032;28;20050;-79
2024/04/01 11:54:29;;;;;;;10.02;4.22;;;;;;;10.70;82.00;99200.09;5002627;28;20042;-79